createdAt,value
2019-01-03T05:03:10.892Z,12.67
2019-01-03T05:06:05.375Z,13.77
2019-01-03T05:08:59.722Z,17.47
2019-01-03T05:11:53.912Z,14.17
2019-01-03T05:14:48.067Z,10.37
2019-01-03T06:02:57.321Z,14.40
2019-01-03T06:05:38.191Z,17.50
2019-01-03T06:08:13.973Z,15.77
2019-01-03T06:10:47.544Z,14.37
2019-01-03T06:13:38.905Z,17.17
2019-01-03T07:01:53.736Z,21.40
2019-01-03T07:04:45.274Z,13.67
2019-01-03T07:07:39.312Z,19.97
2019-01-03T07:10:20.089Z,18.17
2019-01-03T07:13:08.961Z,16.07
2019-01-03T08:02:51.688Z,22.83
2019-01-03T08:05:33.584Z,21.97
2019-01-03T08:08:14.230Z,18.13
2019-01-03T08:11:11.638Z,20.33
2019-01-03T08:13:47.779Z,18.20
2019-01-03T08:22:16.123Z,19.80
2019-01-03T08:25:13.675Z,25.70
2019-01-03T08:28:07.963Z,32.40
2019-01-03T08:30:52.757Z,24.07
2019-01-03T08:33:40.851Z,18.87
2019-01-03T08:36:28.971Z,19.10
2019-01-03T08:39:19.782Z,27.53
2019-01-03T08:42:00.450Z,20.70
2019-01-03T08:44:41.486Z,19.40
2019-01-03T08:47:29.447Z,16.60
2019-01-03T08:50:10.003Z,18.13
2019-01-03T08:53:04.288Z,16.27
2019-01-03T08:55:49.286Z,22.23
2019-01-03T08:58:29.825Z,20.97
2019-01-03T09:01:15.067Z,18.67
2019-01-03T09:03:56.994Z,17.27
2019-01-03T09:06:37.615Z,16.97
2019-01-03T09:09:28.611Z,16.57
2019-01-03T09:12:10.605Z,19.00
2019-01-03T09:14:50.759Z,13.90
2019-01-03T10:00:57.520Z,22.53
2019-01-03T10:03:32.775Z,28.03
2019-01-03T10:06:07.931Z,18.20
2019-01-03T10:08:43.067Z,17.33
2019-01-03T10:11:05.508Z,20.07
2019-01-03T10:13:40.371Z,21.33
2019-01-03T15:00:17.774Z,17.77
2019-01-03T15:02:59.710Z,16.33
2019-01-03T15:05:35.163Z,13.87
2019-01-03T15:08:10.059Z,10.23
2019-01-03T15:10:45.198Z,11.70
2019-01-03T18:02:46.892Z,41.87
2019-01-03T18:05:21.906Z,36.20
2019-01-03T18:07:57.023Z,39.75
2019-01-03T18:10:32.173Z,48.00
2019-01-03T18:13:07.190Z,47.77
2019-01-03T19:02:47.764Z,41.87
2019-01-03T19:05:29.350Z,49.37
2019-01-03T19:10:56.617Z,43.27
2019-01-03T19:13:31.721Z,46.20
2019-01-03T19:15:55.928Z,56.67
2019-01-03T19:18:18.371Z,58.83
2019-01-03T19:20:40.828Z,47.60
2019-01-03T19:23:03.406Z,48.20
2019-01-03T19:25:25.930Z,45.20
2019-01-03T19:28:00.999Z,52.50
2019-01-03T19:30:36.222Z,46.83
2019-01-03T19:33:11.190Z,48.47
2019-01-03T19:35:46.487Z,53.87
2019-01-03T19:38:21.467Z,53.93
2019-01-03T19:40:56.479Z,47.90
2019-01-03T19:43:31.355Z,48.43
2019-01-03T19:46:06.416Z,50.60
2019-01-03T19:48:41.535Z,49.60
2019-01-03T19:51:16.329Z,48.83
2019-01-03T19:53:51.359Z,47.43
2019-01-03T19:56:26.453Z,49.13
2019-01-03T19:59:01.735Z,51.03
2019-01-03T20:01:36.835Z,46.67
2019-01-03T20:04:11.923Z,45.33
2019-01-03T20:06:47.115Z,45.20
2019-01-03T20:09:22.455Z,45.63
2019-01-03T20:11:57.773Z,48.40
2019-01-03T20:14:32.924Z,46.60
2019-01-03T21:02:49.731Z,84.87
2019-01-03T21:05:24.722Z,78.57
2019-01-03T21:08:00.003Z,78.80
2019-01-03T21:10:35.908Z,73.63
2019-01-03T21:13:11.258Z,88.23
